Time;durP1;ratioP1;P1;durP2;ratioP2;P2;SDS_P1;SDS_P2;PMS_P1;PMS_P2;Temp;Humidity;BMP_temperature;BMP_pressure;BME280_temperature;BME280_humidity;BME280_pressure;Samples;Min_cycle;Max_cycle;Signal;HPM_P1;HPM_P2
2021/08/07 00:00:54;;;;;;;17.67;15.35;;;;;;;;;;5095188;28;20030;-66
2021/08/07 00:03:20;;;;;;;17.42;14.57;;;;;;;;;;5076971;28;20035;-66
2021/08/07 00:05:46;;;;;;;16.98;14.73;;;;;;;;;;5094471;28;20028;-66
2021/08/07 00:08:12;;;;;;;17.45;15.50;;;;;;;;;;5095056;28;20024;-67
2021/08/07 00:10:38;;;;;;;17.88;15.07;;;;;;;;;;5095008;28;20020;-67
2021/08/07 00:13:05;;;;;;;19.40;14.95;;;;;;;;;;5076637;28;20028;-66
2021/08/07 00:15:31;;;;;;;16.52;14.73;;;;;;;;;;5094206;28;20082;-67
2021/08/07 00:17:57;;;;;;;17.73;14.70;;;;;;;;;;5094779;28;20491;-64
2021/08/07 00:20:23;;;;;;;17.10;15.30;;;;;;;;;;5094780;28;20050;-65
2021/08/07 00:22:49;;;;;;;17.88;15.02;;;;;;;;;;5076745;28;20062;-66
2021/08/07 00:25:15;;;;;;;17.45;14.82;;;;;;;;;;5093967;28;20028;-66
2021/08/07 00:27:42;;;;;;;17.65;15.25;;;;;;;;;;5076148;28;20024;-66
2021/08/07 00:30:08;;;;;;;17.70;15.50;;;;;;;;;;5076449;28;20061;-66
2021/08/07 00:32:35;;;;;;;16.98;15.18;;;;;;;;;;5094681;28;20024;-66
2021/08/07 00:35:00;;;;;;;18.30;15.10;;;;;;;;;;5094267;28;20027;-67
2021/08/07 00:37:27;;;;;;;17.42;15.07;;;;;;;;;;5093783;28;20024;-65
2021/08/07 00:39:53;;;;;;;17.08;15.00;;;;;;;;;;5076368;28;20028;-66
2021/08/07 00:42:19;;;;;;;18.05;16.15;;;;;;;;;;5094349;28;20402;-66
2021/08/07 00:44:45;;;;;;;18.05;15.68;;;;;;;;;;5094606;28;20024;-67
2021/08/07 00:47:11;;;;;;;17.40;15.50;;;;;;;;;;5075655;28;20024;-67
2021/08/07 00:49:37;;;;;;;18.42;15.30;;;;;;;;;;5094425;28;20028;-67
2021/08/07 00:52:03;;;;;;;19.27;14.98;;;;;;;;;;5076016;28;20391;-66
2021/08/07 00:54:29;;;;;;;18.73;14.85;;;;;;;;;;5094290;28;20028;-66
2021/08/07 00:56:55;;;;;;;18.23;15.10;;;;;;;;;;5075248;28;20395;-65
2021/08/07 00:59:21;;;;;;;19.23;14.80;;;;;;;;;;5094061;28;20026;-67
2021/08/07 01:01:53;;;;;;;17.60;14.75;;;;;;;;;;5093796;28;20020;-65
2021/08/07 01:04:27;;;;;;;16.88;14.82;;;;;;;;;;5058793;28;20036;-66
2021/08/07 01:07:04;;;;;;;18.73;14.75;;;;;;;;;;5093350;28;20031;-66
2021/08/07 01:09:38;;;;;;;17.42;14.98;;;;;;;;;;5093905;28;20430;-65
2021/08/07 01:12:19;;;;;;;17.52;15.30;;;;;;;;;;5075988;28;20085;-66
2021/08/07 01:14:45;;;;;;;17.83;15.48;;;;;;;;;;5093838;28;20480;-67
2021/08/07 01:17:15;;;;;;;21.63;15.98;;;;;;;;;;5093010;28;20515;-67
2021/08/07 01:19:59;;;;;;;16.92;14.93;;;;;;;;;;5093609;28;20514;-65
2021/08/07 01:22:31;;;;;;;17.92;14.98;;;;;;;;;;5094056;28;20387;-66
2021/08/07 01:25:01;;;;;;;19.40;15.38;;;;;;;;;;5075684;28;20028;-65
2021/08/07 01:27:33;;;;;;;17.15;15.30;;;;;;;;;;5092894;28;20484;-68
2021/08/07 01:30:00;;;;;;;17.30;15.00;;;;;;;;;;5093582;28;20424;-65
2021/08/07 01:32:26;;;;;;;19.05;15.15;;;;;;;;;;5093497;28;20024;-67
2021/08/07 01:34:53;;;;;;;17.05;15.25;;;;;;;;;;5075714;28;20388;-65
2021/08/07 01:37:19;;;;;;;21.27;18.98;;;;;;;;;;5093717;28;20399;-67
2021/08/07 01:39:47;;;;;;;17.98;15.30;;;;;;;;;;5093441;28;20020;-64
2021/08/07 01:42:13;;;;;;;20.23;16.15;;;;;;;;;;5075662;28;20028;-65
2021/08/07 01:44:39;;;;;;;18.05;15.77;;;;;;;;;;5075600;28;20020;-65
2021/08/07 01:47:07;;;;;;;19.83;15.48;;;;;;;;;;5074584;28;20413;-64
2021/08/07 01:49:39;;;;;;;18.88;16.13;;;;;;;;;;5093182;28;20028;-64
2021/08/07 01:52:09;;;;;;;17.90;15.32;;;;;;;;;;5093015;28;20043;-65
2021/08/07 01:54:37;;;;;;;16.92;15.10;;;;;;;;;;5093064;28;20536;-66
2021/08/07 01:57:04;;;;;;;18.95;15.25;;;;;;;;;;5092381;28;20046;-65
2021/08/07 01:59:34;;;;;;;18.27;15.98;;;;;;;;;;5092723;28;20021;-66
2021/08/07 02:02:00;;;;;;;18.15;15.18;;;;;;;;;;5092798;28;20410;-66
2021/08/07 02:04:26;;;;;;;18.67;15.80;;;;;;;;;;5092715;28;20391;-67
2021/08/07 02:06:53;;;;;;;18.42;15.32;;;;;;;;;;5073506;28;20020;-66
2021/08/07 02:09:19;;;;;;;18.15;15.63;;;;;;;;;;5074227;28;20028;-65
2021/08/07 02:11:46;;;;;;;18.00;15.45;;;;;;;;;;5092139;28;20063;-64
2021/08/07 02:14:12;;;;;;;18.30;15.70;;;;;;;;;;5091796;28;20068;-64
2021/08/07 02:16:39;;;;;;;19.20;15.63;;;;;;;;;;5091610;28;20020;-64
2021/08/07 02:19:05;;;;;;;19.48;16.45;;;;;;;;;;5092290;28;20020;-65
2021/08/07 02:21:32;;;;;;;18.02;15.82;;;;;;;;;;5073783;28;20448;-64
2021/08/07 02:23:58;;;;;;;18.40;15.90;;;;;;;;;;5074139;28;20020;-66
2021/08/07 02:26:25;;;;;;;18.05;15.63;;;;;;;;;;5091340;28;20142;-65
2021/08/07 02:28:51;;;;;;;18.48;15.63;;;;;;;;;;5073987;28;20330;-66
2021/08/07 02:31:18;;;;;;;17.50;15.60;;;;;;;;;;5092402;28;20034;-67
2021/08/07 02:33:44;;;;;;;20.05;17.75;;;;;;;;;;5092706;28;20028;-66
2021/08/07 02:36:12;;;;;;;19.70;16.25;;;;;;;;;;5091568;28;20024;-67
2021/08/07 02:38:38;;;;;;;18.73;15.88;;;;;;;;;;5074310;28;20024;-66
2021/08/07 02:41:04;;;;;;;18.52;15.88;;;;;;;;;;5074239;28;20020;-67
2021/08/07 02:43:31;;;;;;;18.55;15.90;;;;;;;;;;5092441;28;20016;-66
2021/08/07 02:45:58;;;;;;;19.83;17.52;;;;;;;;;;5073714;28;20107;-66
2021/08/07 02:48:25;;;;;;;18.17;15.77;;;;;;;;;;5074599;28;20051;-67
2021/08/07 02:50:51;;;;;;;20.75;16.13;;;;;;;;;;5073980;28;20471;-66
2021/08/07 02:53:17;;;;;;;18.67;16.05;;;;;;;;;;5092263;28;20048;-66
2021/08/07 02:55:44;;;;;;;19.25;15.95;;;;;;;;;;5073430;28;20484;-66
2021/08/07 02:58:10;;;;;;;18.42;16.02;;;;;;;;;;5074059;28;20455;-67
2021/08/07 03:00:37;;;;;;;18.33;16.25;;;;;;;;;;5091925;28;20464;-67
2021/08/07 03:03:03;;;;;;;19.20;16.55;;;;;;;;;;5092114;28;20096;-66
2021/08/07 03:05:29;;;;;;;25.42;18.35;;;;;;;;;;5091158;28;20480;-66
2021/08/07 03:07:55;;;;;;;20.33;18.23;;;;;;;;;;5074049;28;20119;-66
2021/08/07 03:10:21;;;;;;;20.90;18.52;;;;;;;;;;5073985;28;20398;-67
2021/08/07 03:12:49;;;;;;;22.52;19.67;;;;;;;;;;5092204;28;20031;-66
2021/08/07 03:15:16;;;;;;;22.33;20.02;;;;;;;;;;5091402;28;20036;-64
2021/08/07 03:17:43;;;;;;;25.45;22.77;;;;;;;;;;5073623;28;20039;-64
2021/08/07 03:20:10;;;;;;;23.50;21.20;;;;;;;;;;5073840;28;20044;-66
2021/08/07 03:22:36;;;;;;;24.13;21.63;;;;;;;;;;5092107;28;20043;-67
2021/08/07 03:25:02;;;;;;;23.15;20.83;;;;;;;;;;5073877;28;20028;-64
2021/08/07 03:27:28;;;;;;;23.98;21.17;;;;;;;;;;5095379;28;20016;-64
2021/08/07 03:29:54;;;;;;;23.02;20.73;;;;;;;;;;5096366;28;20111;-65
2021/08/07 03:32:20;;;;;;;23.85;21.52;;;;;;;;;;5077729;28;20061;-66
2021/08/07 03:34:46;;;;;;;23.35;21.00;;;;;;;;;;5095919;28;20024;-66
2021/08/07 03:37:12;;;;;;;24.55;22.02;;;;;;;;;;5094975;28;20073;-68
2021/08/07 03:39:38;;;;;;;23.45;21.13;;;;;;;;;;5095512;28;20107;-69
2021/08/07 03:42:04;;;;;;;24.20;21.75;;;;;;;;;;5095677;28;20020;-67
2021/08/07 03:44:30;;;;;;;23.45;21.25;;;;;;;;;;5095435;28;20021;-67
2021/08/07 03:46:56;;;;;;;25.75;22.45;;;;;;;;;;5094806;28;20427;-67
2021/08/07 03:49:22;;;;;;;24.45;21.95;;;;;;;;;;5077104;28;20016;-67
2021/08/07 03:51:48;;;;;;;23.05;20.75;;;;;;;;;;5095171;28;20531;-66
2021/08/07 03:54:14;;;;;;;22.92;20.63;;;;;;;;;;5077190;28;20020;-67
2021/08/07 03:56:40;;;;;;;22.40;20.20;;;;;;;;;;5076626;28;20119;-67
2021/08/07 03:59:07;;;;;;;23.02;20.73;;;;;;;;;;5077398;28;20395;-67
2021/08/07 04:01:33;;;;;;;23.98;20.40;;;;;;;;;;5077046;28;20024;-67
2021/08/07 04:03:59;;;;;;;22.77;20.58;;;;;;;;;;5077063;28;20028;-67
2021/08/07 04:06:25;;;;;;;22.27;19.98;;;;;;;;;;5094337;28;20032;-67
2021/08/07 04:08:51;;;;;;;22.65;20.45;;;;;;;;;;5094951;28;20028;-67
2021/08/07 04:11:17;;;;;;;23.13;19.80;;;;;;;;;;5095047;28;20028;-65
2021/08/07 04:13:42;;;;;;;22.95;20.65;;;;;;;;;;5076878;28;20031;-65
2021/08/07 04:16:09;;;;;;;22.23;19.55;;;;;;;;;;5075982;28;20032;-65
2021/08/07 04:18:35;;;;;;;23.20;20.70;;;;;;;;;;5094725;28;20052;-65
2021/08/07 04:21:01;;;;;;;22.40;20.00;;;;;;;;;;5076750;28;20056;-65
2021/08/07 04:23:27;;;;;;;21.58;19.45;;;;;;;;;;5094751;28;20020;-65
2021/08/07 04:25:53;;;;;;;25.33;19.38;;;;;;;;;;5094169;28;20055;-66
2021/08/07 04:28:19;;;;;;;21.70;18.25;;;;;;;;;;5094690;28;20062;-64
2021/08/07 04:30:45;;;;;;;20.40;17.80;;;;;;;;;;5094564;28;20540;-64
2021/08/07 04:33:11;;;;;;;20.35;18.15;;;;;;;;;;5076332;28;20040;-65
2021/08/07 04:35:37;;;;;;;20.25;18.15;;;;;;;;;;5093898;28;20047;-65
2021/08/07 04:38:03;;;;;;;20.73;18.58;;;;;;;;;;5074999;28;20445;-65
2021/08/07 04:40:30;;;;;;;19.48;17.38;;;;;;;;;;5076238;28;20430;-65
2021/08/07 04:42:56;;;;;;;21.30;17.00;;;;;;;;;;5094212;28;20020;-65
2021/08/07 04:45:22;;;;;;;18.95;16.95;;;;;;;;;;5093592;28;20023;-66
2021/08/07 04:47:53;;;;;;;19.48;16.90;;;;;;;;;;5094262;28;20047;-67
2021/08/07 04:50:19;;;;;;;18.15;16.20;;;;;;;;;;5093862;28;20404;-66
2021/08/07 04:52:45;;;;;;;18.98;16.98;;;;;;;;;;5094098;28;20032;-65
2021/08/07 04:55:11;;;;;;;18.42;16.33;;;;;;;;;;5075642;28;20111;-65
2021/08/07 04:57:37;;;;;;;19.13;16.02;;;;;;;;;;5094028;28;20111;-66
2021/08/07 05:00:03;;;;;;;19.65;15.52;;;;;;;;;;5075881;28;20111;-67
2021/08/07 05:02:29;;;;;;;18.83;15.60;;;;;;;;;;5086758;28;20028;-66
2021/08/07 05:04:55;;;;;;;17.52;15.25;;;;;;;;;;5078105;28;20034;-67
2021/08/07 05:07:21;;;;;;;17.40;15.05;;;;;;;;;;5075281;28;20078;-67
2021/08/07 05:09:47;;;;;;;18.50;15.10;;;;;;;;;;5067212;28;20023;-66
2021/08/07 05:12:13;;;;;;;17.58;15.30;;;;;;;;;;5055420;28;20025;-68
2021/08/07 05:14:39;;;;;;;19.42;15.45;;;;;;;;;;5073500;28;20039;-67
2021/08/07 05:17:05;;;;;;;18.25;15.18;;;;;;;;;;5054415;28;20028;-66
2021/08/07 05:19:31;;;;;;;17.83;15.63;;;;;;;;;;5091737;28;20020;-66
2021/08/07 05:21:57;;;;;;;18.00;15.32;;;;;;;;;;5093591;28;20076;-65
2021/08/07 05:24:23;;;;;;;18.27;15.60;;;;;;;;;;5093537;28;20024;-66
2021/08/07 05:26:49;;;;;;;17.75;15.05;;;;;;;;;;5074444;28;20024;-66
2021/08/07 05:29:15;;;;;;;18.55;15.38;;;;;;;;;;5092833;28;20395;-66
2021/08/07 05:31:41;;;;;;;17.52;14.70;;;;;;;;;;5093050;28;20039;-66
2021/08/07 05:34:07;;;;;;;22.80;16.17;;;;;;;;;;5093055;28;20042;-65
2021/08/07 05:36:33;;;;;;;18.38;15.70;;;;;;;;;;5074213;28;20029;-66
2021/08/07 05:38:59;;;;;;;18.80;15.68;;;;;;;;;;5073012;28;20077;-66
2021/08/07 05:41:25;;;;;;;19.85;15.55;;;;;;;;;;5072711;28;20031;-65
2021/08/07 05:43:51;;;;;;;19.98;15.18;;;;;;;;;;5054880;28;20462;-67
2021/08/07 05:46:18;;;;;;;17.73;15.30;;;;;;;;;;5072077;28;20550;-67
2021/08/07 05:48:43;;;;;;;18.58;15.85;;;;;;;;;;5072354;28;20016;-67
2021/08/07 05:51:09;;;;;;;19.35;14.90;;;;;;;;;;5095314;22;20128;-67
2021/08/07 05:53:35;;;;;;;17.58;14.57;;;;;;;;;;5073097;28;20032;-69
2021/08/07 05:56:01;;;;;;;18.50;14.40;;;;;;;;;;5072425;28;20484;-70
2021/08/07 05:58:30;;;;;;;18.00;14.55;;;;;;;;;;5054848;28;20033;-70
2021/08/07 06:00:56;;;;;;;18.02;14.52;;;;;;;;;;5075759;28;20065;-69
2021/08/07 06:03:22;;;;;;;20.25;14.93;;;;;;;;;;5060342;28;20028;-69
2021/08/07 06:05:48;;;;;;;18.75;14.90;;;;;;;;;;5054428;28;20476;-69
2021/08/07 06:08:15;;;;;;;17.23;14.50;;;;;;;;;;5055512;28;20162;-69
2021/08/07 06:10:41;;;;;;;17.83;14.75;;;;;;;;;;5072020;28;20028;-67
2021/08/07 06:13:07;;;;;;;19.95;15.20;;;;;;;;;;5052922;28;20021;-69
2021/08/07 06:15:33;;;;;;;17.55;14.75;;;;;;;;;;5070886;28;20108;-70
2021/08/07 06:18:00;;;;;;;18.35;14.27;;;;;;;;;;5053704;28;20123;-68
2021/08/07 06:20:26;;;;;;;18.43;14.90;;;;;;;;;;5053965;28;20019;-66
2021/08/07 06:22:52;;;;;;;18.33;14.80;;;;;;;;;;5053921;28;20111;-67
2021/08/07 06:25:18;;;;;;;17.45;14.40;;;;;;;;;;5053760;28;20141;-67
2021/08/07 06:27:45;;;;;;;17.55;14.50;;;;;;;;;;5054174;28;20025;-68
2021/08/07 06:30:11;;;;;;;18.08;14.65;;;;;;;;;;5072346;28;20545;-68
2021/08/07 06:32:37;;;;;;;18.23;14.65;;;;;;;;;;5072441;28;20036;-67
2021/08/07 06:35:03;;;;;;;18.98;14.80;;;;;;;;;;5054372;28;20089;-67
2021/08/07 06:37:30;;;;;;;17.88;15.00;;;;;;;;;;5085839;28;20028;-70
2021/08/07 06:39:56;;;;;;;19.23;14.65;;;;;;;;;;5092379;28;20448;-68
2021/08/07 06:42:22;;;;;;;20.77;14.75;;;;;;;;;;5073966;28;20111;-67
2021/08/07 06:44:47;;;;;;;19.02;14.70;;;;;;;;;;5073899;28;20518;-68
2021/08/07 06:47:13;;;;;;;18.58;14.60;;;;;;;;;;5091671;28;20067;-67
2021/08/07 06:49:40;;;;;;;18.38;14.70;;;;;;;;;;5073936;28;20070;-67
2021/08/07 06:52:06;;;;;;;17.50;14.82;;;;;;;;;;5073639;28;20455;-67
2021/08/07 06:54:32;;;;;;;17.95;14.85;;;;;;;;;;5073947;28;20476;-68
2021/08/07 06:56:58;;;;;;;18.40;14.95;;;;;;;;;;5073538;28;20039;-68
2021/08/07 06:59:24;;;;;;;18.05;14.80;;;;;;;;;;5092077;28;20456;-68
2021/08/07 07:01:50;;;;;;;18.25;14.43;;;;;;;;;;5072907;28;20122;-68
2021/08/07 07:04:16;;;;;;;17.23;14.80;;;;;;;;;;5078042;28;20025;-69
2021/08/07 07:06:42;;;;;;;19.50;14.93;;;;;;;;;;5053159;28;20024;-68
2021/08/07 07:09:08;;;;;;;19.13;14.10;;;;;;;;;;5071770;28;20031;-70
2021/08/07 07:11:37;;;;;;;18.25;14.60;;;;;;;;;;5071989;28;20523;-67
2021/08/07 07:14:03;;;;;;;17.98;15.00;;;;;;;;;;5053496;28;20020;-68
2021/08/07 07:16:30;;;;;;;17.05;14.32;;;;;;;;;;5071467;28;20079;-67
2021/08/07 07:18:56;;;;;;;16.65;14.38;;;;;;;;;;5071720;28;20074;-68
2021/08/07 07:21:22;;;;;;;18.70;15.60;;;;;;;;;;5054031;28;20564;-65
2021/08/07 07:23:48;;;;;;;17.73;14.82;;;;;;;;;;5071801;28;20052;-68
2021/08/07 07:26:14;;;;;;;17.73;14.75;;;;;;;;;;5071170;28;20384;-67
2021/08/07 07:28:40;;;;;;;17.45;15.25;;;;;;;;;;5053711;28;20055;-67
2021/08/07 07:31:06;;;;;;;21.63;17.00;;;;;;;;;;5053524;28;20035;-67
2021/08/07 07:33:32;;;;;;;17.63;14.50;;;;;;;;;;5071701;28;20040;-65
2021/08/07 07:35:58;;;;;;;16.65;14.45;;;;;;;;;;5071298;28;20024;-68
2021/08/07 07:38:25;;;;;;;17.98;14.68;;;;;;;;;;5053522;28;20024;-67
2021/08/07 07:40:51;;;;;;;29.02;14.80;;;;;;;;;;5071882;28;20027;-67
2021/08/07 07:43:20;;;;;;;19.00;14.70;;;;;;;;;;5053555;28;20032;-68
2021/08/07 07:45:46;;;;;;;17.70;14.55;;;;;;;;;;5071326;28;20020;-68
2021/08/07 07:48:12;;;;;;;18.02;15.38;;;;;;;;;;5053614;28;20025;-68
2021/08/07 07:50:39;;;;;;;19.35;14.80;;;;;;;;;;5071510;28;20124;-68
2021/08/07 07:53:05;;;;;;;20.02;15.45;;;;;;;;;;5053564;28;20403;-67
2021/08/07 07:55:31;;;;;;;19.95;15.70;;;;;;;;;;5053102;28;20024;-68
2021/08/07 07:57:58;;;;;;;17.30;14.85;;;;;;;;;;5053429;28;20032;-67
2021/08/07 08:00:24;;;;;;;17.40;14.95;;;;;;;;;;5071424;28;20039;-69
2021/08/07 08:02:51;;;;;;;18.52;15.50;;;;;;;;;;5055937;28;20115;-69
2021/08/07 08:05:17;;;;;;;21.25;16.08;;;;;;;;;;5091531;28;20454;-68
2021/08/07 08:07:43;;;;;;;18.42;15.68;;;;;;;;;;5091783;28;20031;-68
2021/08/07 08:10:11;;;;;;;19.42;15.73;;;;;;;;;;5073563;28;20047;-68
2021/08/07 08:12:38;;;;;;;19.02;15.88;;;;;;;;;;5074835;28;20810;-68
2021/08/07 08:15:05;;;;;;;18.70;15.65;;;;;;;;;;5095246;28;20031;-68
2021/08/07 08:17:31;;;;;;;19.60;15.27;;;;;;;;;;5094926;28;20544;-68
2021/08/07 08:20:00;;;;;;;18.75;15.60;;;;;;;;;;5077055;28;20484;-68
2021/08/07 08:22:26;;;;;;;19.13;15.55;;;;;;;;;;5095465;28;20020;-68
2021/08/07 08:24:52;;;;;;;18.73;15.32;;;;;;;;;;5076644;28;20034;-67
2021/08/07 08:27:21;;;;;;;19.20;15.48;;;;;;;;;;5076220;28;20039;-68
2021/08/07 08:29:47;;;;;;;19.25;14.80;;;;;;;;;;5076775;28;20032;-70
2021/08/07 08:32:13;;;;;;;18.20;14.45;;;;;;;;;;5094839;28;20043;-69
2021/08/07 08:34:39;;;;;;;17.85;14.40;;;;;;;;;;5076644;28;20123;-69
2021/08/07 08:37:05;;;;;;;17.38;14.50;;;;;;;;;;5094639;28;20484;-71
2021/08/07 08:39:32;;;;;;;17.70;14.43;;;;;;;;;;5076925;28;20039;-68
2021/08/07 08:41:59;;;;;;;17.80;13.88;;;;;;;;;;5094775;28;20016;-67
2021/08/07 08:44:25;;;;;;;18.17;14.52;;;;;;;;;;5094713;28;20134;-67
2021/08/07 08:46:51;;;;;;;20.48;14.18;;;;;;;;;;5075487;28;20507;-65
2021/08/07 08:49:17;;;;;;;17.52;13.95;;;;;;;;;;5093870;28;20066;-66
2021/08/07 08:51:45;;;;;;;16.40;14.10;;;;;;;;;;5075792;28;20036;-66
2021/08/07 08:54:11;;;;;;;19.90;14.13;;;;;;;;;;5075955;28;20020;-66
2021/08/07 08:56:38;;;;;;;17.10;14.63;;;;;;;;;;5093100;28;20274;-64
2021/08/07 08:59:04;;;;;;;17.45;14.43;;;;;;;;;;5093873;28;20103;-67
2021/08/07 09:01:30;;;;;;;19.27;14.90;;;;;;;;;;5075749;28;20123;-65
2021/08/07 09:03:56;;;;;;;17.35;14.50;;;;;;;;;;5093597;28;20034;-66
2021/08/07 09:06:23;;;;;;;18.63;14.95;;;;;;;;;;5093139;28;20024;-65
2021/08/07 09:09:01;;;;;;;17.85;14.52;;;;;;;;;;5093447;28;20023;-65
2021/08/07 09:11:27;;;;;;;17.35;14.20;;;;;;;;;;5093845;28;20020;-65
2021/08/07 09:14:12;;;;;;;19.85;15.75;;;;;;;;;;5092774;28;20023;-66
2021/08/07 09:16:38;;;;;;;18.45;14.50;;;;;;;;;;5093202;28;20032;-65
2021/08/07 09:19:04;;;;;;;19.42;15.20;;;;;;;;;;5075532;28;20045;-66
2021/08/07 09:21:30;;;;;;;18.70;15.18;;;;;;;;;;5093968;28;20020;-67
2021/08/07 09:24:08;;;;;;;24.25;16.02;;;;;;;;;;5092883;28;20031;-66
2021/08/07 09:26:34;;;;;;;17.83;15.13;;;;;;;;;;5074698;28;20031;-66
2021/08/07 09:29:00;;;;;;;18.20;15.75;;;;;;;;;;5075092;28;20032;-66
2021/08/07 09:31:26;;;;;;;18.98;15.20;;;;;;;;;;5075405;28;20024;-66
2021/08/07 09:34:11;;;;;;;18.50;15.77;;;;;;;;;;5093666;28;20074;-66
2021/08/07 09:36:47;;;;;;;18.65;15.20;;;;;;;;;;5092460;28;20028;-65
2021/08/07 09:39:14;;;;;;;17.63;15.68;;;;;;;;;;5093177;28;20057;-66
2021/08/07 09:41:58;;;;;;;17.67;14.75;;;;;;;;;;5092790;28;20032;-66
2021/08/07 09:44:24;;;;;;;20.52;15.48;;;;;;;;;;5074996;28;20468;-66
2021/08/07 09:46:50;;;;;;;18.58;15.52;;;;;;;;;;5092274;28;20103;-66
2021/08/07 09:49:16;;;;;;;19.50;15.70;;;;;;;;;;5074917;28;20024;-66
2021/08/07 09:51:42;;;;;;;18.23;15.27;;;;;;;;;;5075239;28;20093;-67
2021/08/07 09:54:16;;;;;;;19.60;15.23;;;;;;;;;;5093732;28;20020;-67
2021/08/07 09:56:47;;;;;;;19.15;15.80;;;;;;;;;;5092985;28;20028;-67
2021/08/07 09:59:14;;;;;;;18.35;15.63;;;;;;;;;;5074905;28;20107;-67
2021/08/07 10:01:40;;;;;;;20.75;16.05;;;;;;;;;;5074023;28;20123;-67
2021/08/07 10:04:08;;;;;;;19.13;16.40;;;;;;;;;;5079823;28;20070;-66
2021/08/07 10:06:36;;;;;;;19.55;17.02;;;;;;;;;;5053661;28;20025;-67
2021/08/07 10:09:02;;;;;;;18.80;16.15;;;;;;;;;;5072162;28;20025;-65
2021/08/07 10:11:29;;;;;;;18.80;16.80;;;;;;;;;;5054009;28;20067;-66
2021/08/07 10:13:55;;;;;;;20.88;17.33;;;;;;;;;;5070412;28;20046;-66
2021/08/07 10:16:21;;;;;;;19.17;16.95;;;;;;;;;;5071328;28;20025;-66
2021/08/07 10:18:48;;;;;;;19.50;16.90;;;;;;;;;;5054010;28;20021;-66
2021/08/07 10:21:14;;;;;;;19.98;17.60;;;;;;;;;;5071779;28;20531;-64
2021/08/07 10:23:40;;;;;;;23.58;18.67;;;;;;;;;;5054065;28;20392;-68
2021/08/07 10:26:10;;;;;;;20.10;17.90;;;;;;;;;;5071466;28;20020;-66
2021/08/07 10:28:41;;;;;;;20.50;18.30;;;;;;;;;;5071518;28;20033;-65
2021/08/07 10:31:09;;;;;;;22.90;18.88;;;;;;;;;;5071884;28;20272;-65
2021/08/07 10:33:37;;;;;;;20.13;18.02;;;;;;;;;;5054227;28;20024;-66
2021/08/07 10:36:03;;;;;;;19.88;17.88;;;;;;;;;;5071253;28;20032;-66
2021/08/07 10:38:29;;;;;;;19.45;17.30;;;;;;;;;;5071599;28;20510;-65
2021/08/07 10:40:55;;;;;;;21.48;18.10;;;;;;;;;;5071485;28;20024;-65
2021/08/07 10:43:22;;;;;;;20.05;17.65;;;;;;;;;;5053884;28;20020;-66
2021/08/07 10:45:48;;;;;;;19.70;17.40;;;;;;;;;;5070703;28;20024;-65
2021/08/07 10:48:44;;;;;;;20.58;16.90;;;;;;;;;;5071693;28;20128;-66
2021/08/07 10:51:30;;;;;;;20.65;17.38;;;;;;;;;;5054121;28;20040;-65
2021/08/07 10:53:57;;;;;;;20.80;17.65;;;;;;;;;;5071177;28;20028;-65
2021/08/07 10:56:29;;;;;;;22.08;16.92;;;;;;;;;;5070362;28;20032;-65
2021/08/07 10:58:56;;;;;;;20.02;16.75;;;;;;;;;;5053180;28;20472;-66
2021/08/07 11:01:25;;;;;;;19.45;16.27;;;;;;;;;;5071228;28;20070;-66
2021/08/07 11:04:02;;;;;;;20.17;16.80;;;;;;;;;;5081990;28;20027;-67
2021/08/07 11:06:37;;;;;;;20.83;16.85;;;;;;;;;;5090667;28;20052;-64
2021/08/07 11:09:15;;;;;;;18.60;16.60;;;;;;;;;;5091133;28;20071;-65
2021/08/07 11:11:42;;;;;;;19.55;17.23;;;;;;;;;;5091351;28;20020;-67
2021/08/07 11:14:26;;;;;;;19.92;16.90;;;;;;;;;;5091638;28;20035;-67
2021/08/07 11:17:04;;;;;;;18.55;16.20;;;;;;;;;;5072601;28;20032;-68
2021/08/07 11:19:49;;;;;;;19.98;16.50;;;;;;;;;;5090591;28;20016;-68
2021/08/07 11:22:15;;;;;;;17.85;15.95;;;;;;;;;;5091299;28;20468;-67
2021/08/07 11:24:44;;;;;;;18.38;16.38;;;;;;;;;;5072136;28;20471;-71
2021/08/07 11:27:10;;;;;;;20.02;17.20;;;;;;;;;;5072852;28;20047;-67
2021/08/07 11:30:09;;;;;;;18.83;16.05;;;;;;;;;;5074126;28;20028;-67
2021/08/07 11:32:34;;;;;;;19.13;16.50;;;;;;;;;;5073269;28;20051;-65
2021/08/07 11:35:01;;;;;;;19.25;16.27;;;;;;;;;;5073789;28;20101;-66
2021/08/07 11:37:27;;;;;;;17.95;16.05;;;;;;;;;;5072479;28;20032;-67
2021/08/07 11:40:06;;;;;;;21.70;17.48;;;;;;;;;;5091182;28;20020;-67
2021/08/07 11:42:40;;;;;;;19.00;16.45;;;;;;;;;;5072871;28;20555;-69
2021/08/07 11:45:06;;;;;;;19.77;16.48;;;;;;;;;;5090893;28;20029;-66
2021/08/07 11:47:32;;;;;;;18.33;16.27;;;;;;;;;;5092955;28;20476;-67
2021/08/07 11:49:59;;;;;;;18.48;16.30;;;;;;;;;;5095045;28;20447;-66
2021/08/07 11:52:31;;;;;;;19.05;16.38;;;;;;;;;;5076926;22;20067;-71
2021/08/07 11:54:57;;;;;;;18.20;16.30;;;;;;;;;;5036129;28;20480;-70
2021/08/07 11:57:26;;;;;;;19.77;16.50;;;;;;;;;;5035265;28;20035;-69
2021/08/07 11:59:52;;;;;;;18.35;16.27;;;;;;;;;;5053935;28;20473;-72
2021/08/07 12:02:22;;;;;;;18.77;16.88;;;;;;;;;;5036092;28;20025;-72
2021/08/07 12:05:07;;;;;;;20.35;17.73;;;;;;;;;;5036731;28;20554;-71
2021/08/07 12:07:33;;;;;;;18.63;16.63;;;;;;;;;;5031057;28;20544;-71
2021/08/07 12:10:07;;;;;;;20.25;17.13;;;;;;;;;;5032690;28;20021;-72
2021/08/07 12:12:33;;;;;;;19.10;16.60;;;;;;;;;;5062177;22;20044;-72
2021/08/07 12:15:06;;;;;;;18.40;16.35;;;;;;;;;;5056097;28;20025;-72
2021/08/07 12:17:32;;;;;;;18.35;16.45;;;;;;;;;;5074210;28;20068;-70
2021/08/07 12:20:02;;;;;;;18.05;16.02;;;;;;;;;;5055979;28;20025;-71
2021/08/07 12:22:31;;;;;;;18.05;16.15;;;;;;;;;;5073174;28;20052;-72
2021/08/07 12:25:01;;;;;;;18.73;16.73;;;;;;;;;;5055936;28;20041;-70
2021/08/07 12:27:30;;;;;;;18.67;16.42;;;;;;;;;;5055979;28;20028;-71
2021/08/07 12:29:56;;;;;;;;;;;;;;;;;;5056172;28;20499;-71
2021/08/07 12:32:22;;;;;;;18.50;15.68;;;;;;;;;;5055517;28;19999;-72
2021/08/07 12:34:48;;;;;;;19.50;16.73;;;;;;;;;;5056058;28;20024;-70
2021/08/07 12:37:17;;;;;;;18.08;16.17;;;;;;;;;;5054959;28;20021;-70
2021/08/07 12:39:43;;;;;;;18.63;16.25;;;;;;;;;;5073421;28;20054;-71
2021/08/07 12:42:10;;;;;;;18.52;16.50;;;;;;;;;;5055186;28;20016;-71
2021/08/07 12:44:40;;;;;;;18.42;16.45;;;;;;;;;;5055089;28;20090;-72
2021/08/07 12:47:06;;;;;;;20.08;16.77;;;;;;;;;;5055144;28;20127;-70
2021/08/07 12:49:36;;;;;;;20.67;16.63;;;;;;;;;;5055235;28;20056;-71
2021/08/07 12:52:07;;;;;;;21.60;16.85;;;;;;;;;;5055088;28;20027;-69
2021/08/07 12:54:33;;;;;;;18.23;16.20;;;;;;;;;;5054742;28;20040;-71
2021/08/07 12:56:59;;;;;;;18.38;16.17;;;;;;;;;;5053789;28;20467;-71
2021/08/07 12:59:25;;;;;;;17.92;16.02;;;;;;;;;;5053192;28;20028;-68
2021/08/07 13:02:02;;;;;;;20.08;16.40;;;;;;;;;;5054438;28;20028;-69
2021/08/07 13:04:42;;;;;;;17.52;15.73;;;;;;;;;;5057038;28;20043;-70
2021/08/07 13:07:08;;;;;;;21.55;16.73;;;;;;;;;;5051918;28;20386;-69
2021/08/07 13:09:34;;;;;;;18.25;16.10;;;;;;;;;;5052292;28;20070;-70
2021/08/07 13:12:17;;;;;;;23.90;16.75;;;;;;;;;;5050764;28;20074;-67
2021/08/07 13:14:48;;;;;;;40.00;29.52;;;;;;;;;;5052292;28;20021;-65
2021/08/07 13:17:33;;;;;;;35.17;23.00;;;;;;;;;;5050243;28;20216;-61
2021/08/07 13:19:59;;;;;;;25.23;22.77;;;;;;;;;;5052267;28;20025;-62
2021/08/07 13:22:25;;;;;;;25.73;22.65;;;;;;;;;;5050152;28;20082;-61
2021/08/07 13:24:56;;;;;;;26.88;23.75;;;;;;;;;;5050148;28;20514;-62
2021/08/07 13:27:33;;;;;;;29.38;25.60;;;;;;;;;;5042300;28;20029;-63
2021/08/07 13:30:00;;;;;;;25.52;22.10;;;;;;;;;;5042875;28;20025;-64
2021/08/07 13:32:29;;;;;;;25.30;22.33;;;;;;;;;;5060399;28;20066;-62
2021/08/07 13:34:55;;;;;;;24.10;20.23;;;;;;;;;;5044008;28;20032;-63
2021/08/07 13:37:21;;;;;;;23.58;21.02;;;;;;;;;;5060219;28;20017;-62
2021/08/07 13:39:47;;;;;;;24.60;21.48;;;;;;;;;;5071747;28;20077;-64
2021/08/07 13:42:17;;;;;;;25.27;22.63;;;;;;;;;;5071445;28;20071;-64
2021/08/07 13:44:43;;;;;;;24.67;22.02;;;;;;;;;;5064277;28;20397;-65
2021/08/07 13:47:09;;;;;;;27.67;23.55;;;;;;;;;;5038227;28;20040;-64
2021/08/07 13:49:36;;;;;;;25.25;22.83;;;;;;;;;;5034500;28;20463;-63
2021/08/07 13:52:02;;;;;;;26.90;24.25;;;;;;;;;;5033763;28;20029;-62
2021/08/07 13:54:27;;;;;;;24.92;22.33;;;22.30;99.90;;;;;;5051322;28;20485;-65
2021/08/07 13:56:53;;;;;;;26.30;23.67;;;;;;;;;;5032621;28;20035;-64
2021/08/07 13:59:19;;;;;;;26.35;23.73;;;;;;;;;;5051606;28;20028;-66
2021/08/07 14:01:46;;;;;;;26.88;24.13;;;;;;;;;;5051031;28;20025;-65
2021/08/07 14:04:11;;;;;;;28.95;26.15;;;;;;;;;;5051017;28;20021;-65
2021/08/07 14:06:37;;;;;;;27.25;24.52;;;;;;;;;;5048531;28;20495;-66
2021/08/07 14:09:03;;;;;;;25.63;23.27;;;;;;;;;;5049728;28;20024;-65
2021/08/07 14:11:30;;;;;;;26.60;24.10;;;;;;;;;;5050562;28;20021;-64
2021/08/07 14:13:56;;;;;;;27.05;24.48;;;;;;;;;;5049626;28;20028;-66
2021/08/07 14:16:22;;;;;;;32.78;29.98;;;;;;;;;;5050301;28;20389;-66
2021/08/07 14:18:48;;;;;;;28.80;26.13;;;;;;;;;;5051092;28;20036;-63